Time;durP1;ratioP1;P1;durP2;ratioP2;P2;SDS_P1;SDS_P2;PMS_P1;PMS_P2;Temp;Humidity;BMP_temperature;BMP_pressure;BME280_temperature;BME280_humidity;BME280_pressure;Samples;Min_cycle;Max_cycle;Signal;HPM_P1;HPM_P2
2022/06/29 00:00:18;;;;;;;4.57;1.92;;;18.40;99.90;;;;;;5111983;28;20173;-53
2022/06/29 00:02:46;;;;;;;5.90;1.80;;;18.40;99.90;;;;;;5111634;28;20063;-52
2022/06/29 00:05:14;;;;;;;6.30;2.13;;;18.30;99.90;;;;;;5093317;28;20042;-54
2022/06/29 00:07:41;;;;;;;5.85;1.85;;;18.40;99.90;;;;;;5076069;28;20043;-49
2022/06/29 00:10:08;;;;;;;5.20;1.95;;;18.30;99.90;;;;;;5112452;28;20035;-53
2022/06/29 00:12:33;;;;;;;10.50;2.20;;;18.30;99.90;;;;;;5111711;28;20095;-51
2022/06/29 00:15:02;;;;;;;6.07;1.65;;;18.30;99.90;;;;;;5111877;28;20507;-52
2022/06/29 00:17:29;;;;;;;6.28;1.50;;;18.30;99.90;;;;;;5111867;28;20082;-50
2022/06/29 00:19:55;;;;;;;5.95;1.80;;;18.30;99.90;;;;;;5111952;28;20395;-52
2022/06/29 00:22:21;;;;;;;4.68;1.63;;;18.30;99.90;;;;;;5111790;28;20028;-51
2022/06/29 00:24:46;;;;;;;5.85;2.00;;;18.30;99.90;;;;;;5111860;28;20034;-51
2022/06/29 00:27:12;;;;;;;5.80;1.88;;;18.20;99.90;;;;;;5111877;28;20179;-51
2022/06/29 00:29:38;;;;;;;3.65;1.50;;;18.20;99.90;;;;;;5111613;27;20126;-51
2022/06/29 00:32:04;;;;;;;4.10;1.77;;;18.30;99.90;;;;;;5111422;27;20066;-50
2022/06/29 00:34:30;;;;;;;5.80;1.85;;;18.20;99.90;;;;;;5111051;28;20038;-50
2022/06/29 00:36:56;;;;;;;6.35;1.77;;;18.20;99.90;;;;;;5111243;28;20048;-52
2022/06/29 00:39:21;;;;;;;5.22;1.60;;;18.20;99.90;;;;;;5111119;28;20032;-50
2022/06/29 00:41:47;;;;;;;8.77;2.00;;;18.20;99.90;;;;;;5111220;28;20031;-54
2022/06/29 00:44:19;;;;;;;5.03;1.45;;;18.20;99.90;;;;;;5111379;28;20032;-52
2022/06/29 00:46:55;;;;;;;8.18;1.65;;;18.20;99.90;;;;;;5111175;28;20048;-53
2022/06/29 00:49:23;;;;;;;5.00;1.67;;;18.20;99.90;;;;;;5111047;28;20181;-51
2022/06/29 00:51:54;;;;;;;4.30;1.60;;;18.10;99.90;;;;;;5111062;28;20043;-53
2022/06/29 00:54:23;;;;;;;4.85;1.58;;;18.10;99.90;;;;;;5109929;28;20043;-51
2022/06/29 00:56:52;;;;;;;6.07;1.92;;;18.00;99.90;;;;;;5111111;28;20111;-52
2022/06/29 00:59:22;;;;;;;4.50;1.80;;;18.00;99.90;;;;;;5111138;28;20035;-49
2022/06/29 01:01:48;;;;;;;4.95;1.60;;;17.90;99.90;;;;;;5092652;28;20059;-50
2022/06/29 01:04:14;;;;;;;4.70;1.65;;;17.90;99.90;;;;;;5110964;28;20043;-50
2022/06/29 01:06:41;;;;;;;5.47;1.50;;;17.80;99.90;;;;;;5110765;28;20036;-50
2022/06/29 01:09:07;;;;;;;3.90;1.60;;;17.80;99.90;;;;;;5110289;28;20035;-49
2022/06/29 01:11:33;;;;;;;5.40;1.60;;;17.80;99.90;;;;;;5092496;28;20032;-51
2022/06/29 01:13:59;;;;;;;5.65;1.75;;;17.70;99.90;;;;;;5110615;28;20047;-52
2022/06/29 01:16:26;;;;;;;3.78;1.73;;;17.70;99.90;;;;;;5110748;28;20042;-52
2022/06/29 01:18:52;;;;;;;6.32;2.00;;;17.70;99.90;;;;;;5110784;28;20101;-53
2022/06/29 01:21:19;;;;;;;5.57;1.88;;;17.70;99.90;;;;;;5129830;27;20063;-49
2022/06/29 01:23:45;;;;;;;7.38;1.73;;;17.70;99.90;;;;;;5131190;27;20035;-49
2022/06/29 01:26:11;;;;;;;5.28;1.77;;;17.70;99.90;;;;;;5131300;27;20118;-50
2022/06/29 01:28:44;;;;;;;4.30;1.67;;;17.60;99.90;;;;;;5131080;27;20114;-53
2022/06/29 01:31:15;;;;;;;6.68;1.77;;;17.60;99.90;;;;;;5131293;27;20043;-51
2022/06/29 01:33:40;;;;;;;5.18;1.60;;;17.60;99.90;;;;;;5122429;27;20433;-53
2022/06/29 01:36:06;;;;;;;5.40;1.50;;;17.60;99.90;;;;;;5110407;28;20043;-52
2022/06/29 01:38:33;;;;;;;3.90;1.60;;;17.60;99.90;;;;;;5110079;28;20065;-54
2022/06/29 01:40:58;;;;;;;6.97;1.92;;;17.60;99.90;;;;;;5110427;28;20071;-53
2022/06/29 01:43:24;;;;;;;3.75;1.60;;;17.60;99.90;;;;;;5110234;28;20399;-52
2022/06/29 01:45:50;;;;;;;6.18;1.63;;;17.60;99.90;;;;;;5110739;28;20036;-52
2022/06/29 01:48:16;;;;;;;5.40;1.70;;;17.60;99.90;;;;;;5113437;28;20044;-52
2022/06/29 01:50:42;;;;;;;5.40;2.00;;;17.60;99.90;;;;;;5114491;28;20043;-53
2022/06/29 01:53:08;;;;;;;5.25;1.75;;;17.60;99.90;;;;;;5114645;28;20042;-52
2022/06/29 01:55:33;;;;;;;3.65;1.63;;;17.70;99.90;;;;;;5096144;28;20051;-50
2022/06/29 01:57:59;;;;;;;4.75;1.85;;;17.70;99.90;;;;;;5114548;27;20100;-52
2022/06/29 02:00:25;;;;;;;4.53;1.50;;;17.70;99.90;;;;;;5114794;28;20123;-51
2022/06/29 02:02:50;;;;;;;4.93;1.80;;;17.70;99.90;;;;;;5112818;28;20562;-53
2022/06/29 02:05:16;;;;;;;6.45;1.60;;;17.60;99.90;;;;;;5114667;28;20466;-52
2022/06/29 02:07:42;;;;;;;5.65;1.40;;;17.60;99.90;;;;;;5113941;28;20036;-53
2022/06/29 02:10:08;;;;;;;5.20;1.60;;;17.70;99.90;;;;;;5114215;28;20120;-54
2022/06/29 02:12:33;;;;;;;3.53;1.65;;;17.60;99.90;;;;;;5114392;28;20532;-52
2022/06/29 02:14:59;;;;;;;7.90;1.88;;;17.60;99.90;;;;;;5114363;28;20173;-54
2022/06/29 02:17:25;;;;;;;6.07;1.67;;;17.70;99.90;;;;;;5114329;28;20394;-53
2022/06/29 02:19:50;;;;;;;4.68;1.77;;;17.60;99.90;;;;;;5113888;28;20110;-51
2022/06/29 02:22:16;;;;;;;4.57;1.60;;;17.60;99.90;;;;;;5096105;28;20040;-51
2022/06/29 02:24:42;;;;;;;8.88;2.00;;;17.60;99.90;;;;;;5113746;28;20043;-54
2022/06/29 02:27:07;;;;;;;5.90;1.70;;;17.60;99.90;;;;;;5114053;28;20091;-52
2022/06/29 02:29:33;;;;;;;4.88;1.80;;;17.60;99.90;;;;;;5113925;28;20487;-52
2022/06/29 02:34:48;;;;;;;5.30;1.75;;;17.50;99.90;;;;;;5112884;27;20410;-54
2022/06/29 02:37:15;;;;;;;5.85;2.10;;;17.60;99.90;;;;;;5095303;28;20042;-53
2022/06/29 02:39:45;;;;;;;7.60;1.90;;;17.50;99.90;;;;;;5113461;28;20039;-49
2022/06/29 02:42:12;;;;;;;6.85;1.88;;;17.50;99.90;;;;;;5113667;28;20368;-51
2022/06/29 02:44:38;;;;;;;5.65;1.95;;;17.50;99.90;;;;;;5113879;28;20024;-51
2022/06/29 02:47:05;;;;;;;4.53;1.90;;;17.50;99.90;;;;;;5113220;28;20144;-50
2022/06/29 02:49:32;;;;;;;4.80;1.70;;;17.40;99.90;;;;;;5113819;27;20047;-51
2022/06/29 02:51:57;;;;;;;5.35;1.90;;;17.40;99.90;;;;;;5113840;28;20078;-52
2022/06/29 02:54:23;;;;;;;5.93;2.10;;;17.40;99.90;;;;;;5113317;28;20036;-51
2022/06/29 02:56:49;;;;;;;4.80;2.17;;;17.30;99.90;;;;;;5113389;27;20406;-51
2022/06/29 02:59:15;;;;;;;3.35;1.73;;;17.30;99.90;;;;;;5112844;28;20035;-52
2022/06/29 03:01:40;;;;;;;6.75;2.40;;;17.20;99.90;;;;;;5113394;28;20043;-54
2022/06/29 03:04:06;;;;;;;5.25;2.03;;;17.20;99.90;;;;;;5113453;28;20042;-52
2022/06/29 03:06:32;;;;;;;4.75;2.20;;;17.10;99.90;;;;;;5113546;28;20035;-50
2022/06/29 03:08:57;;;;;;;4.63;2.13;;;17.10;99.90;;;;;;5094466;28;20078;-53
2022/06/29 03:11:23;;;;;;;4.35;2.08;;;17.00;99.90;;;;;;5095327;28;20318;-52
2022/06/29 03:13:49;;;;;;;7.53;2.80;;;17.00;99.90;;;;;;5113105;28;20558;-53
2022/06/29 03:16:15;;;;;;;5.15;2.45;;;17.00;99.90;;;;;;5112941;28;20039;-51
2022/06/29 03:18:40;;;;;;;4.28;2.08;;;16.90;99.90;;;;;;5112814;27;20062;-53
2022/06/29 03:21:06;;;;;;;5.85;2.30;;;16.90;99.90;;;;;;5112989;27;20075;-49
2022/06/29 03:23:32;;;;;;;4.00;2.00;;;16.90;99.90;;;;;;5112947;28;20134;-51
2022/06/29 03:25:57;;;;;;;5.15;2.33;;;16.80;99.90;;;;;;5113054;28;20479;-49
2022/06/29 03:28:23;;;;;;;5.18;2.30;;;16.70;99.90;;;;;;5112848;28;20432;-51
2022/06/29 03:30:49;;;;;;;6.85;2.40;;;16.70;99.90;;;;;;5111726;28;20042;-51
2022/06/29 03:33:15;;;;;;;5.07;2.28;;;16.70;99.90;;;;;;5112570;28;20043;-49
2022/06/29 03:35:40;;;;;;;5.15;2.65;;;16.70;99.90;;;;;;5112874;27;20043;-49
2022/06/29 03:38:06;;;;;;;6.80;2.60;;;16.70;99.90;;;;;;5112169;28;20046;-49
2022/06/29 03:40:32;;;;;;;5.70;2.80;;;16.60;99.90;;;;;;5112267;28;20139;-50
2022/06/29 03:42:57;;;;;;;5.10;2.60;;;16.60;99.90;;;;;;5112328;28;20031;-53
2022/06/29 03:45:23;;;;;;;5.70;2.65;;;16.60;99.90;;;;;;5112342;28;20035;-53
2022/06/29 03:47:50;;;;;;;5.90;2.83;;;16.50;99.90;;;;;;5094320;28;20114;-53
2022/06/29 03:50:16;;;;;;;5.35;2.60;;;16.50;99.90;;;;;;5110860;28;20494;-49
2022/06/29 03:52:42;;;;;;;6.43;2.55;;;16.50;99.90;;;;;;5112575;28;20032;-51
2022/06/29 03:55:08;;;;;;;6.30;2.53;;;16.50;99.90;;;;;;5093819;28;20046;-52
2022/06/29 03:57:34;;;;;;;5.13;2.70;;;16.50;99.90;;;;;;5112503;28;20044;-51
2022/06/29 04:00:01;;;;;;;7.90;2.80;;;16.50;99.90;;;;;;5110954;28;20036;-51
2022/06/29 04:02:26;;;;;;;7.10;2.85;;;16.50;99.90;;;;;;5112105;28;20054;-53
2022/06/29 04:04:53;;;;;;;5.53;2.45;;;16.50;99.90;;;;;;5112131;28;20478;-54
2022/06/29 04:07:18;;;;;;;5.00;2.95;;;16.50;99.90;;;;;;5111707;28;20118;-52
2022/06/29 04:09:44;;;;;;;5.10;2.70;;;16.50;99.90;;;;;;5111109;28;20517;-54
2022/06/29 04:12:10;;;;;;;6.15;2.85;;;16.40;99.90;;;;;;5112074;28;20047;-51
2022/06/29 04:14:36;;;;;;;6.38;3.05;;;16.40;99.90;;;;;;5111715;28;20470;-50
2022/06/29 04:17:02;;;;;;;8.00;3.22;;;16.40;99.90;;;;;;5111784;28;20036;-47
2022/06/29 04:19:28;;;;;;;4.20;2.70;;;16.40;99.90;;;;;;5111889;28;20376;-49
2022/06/29 04:21:55;;;;;;;6.75;3.45;;;16.40;99.90;;;;;;5112047;28;20176;-51
2022/06/29 04:24:21;;;;;;;6.05;2.78;;;16.40;99.90;;;;;;5111797;28;20481;-52
2022/06/29 04:26:48;;;;;;;9.80;3.10;;;16.40;99.90;;;;;;5111858;28;20040;-53
2022/06/29 04:29:13;;;;;;;7.38;3.22;;;16.40;99.90;;;;;;5111371;28;20043;-50
2022/06/29 04:31:40;;;;;;;6.40;3.00;;;16.40;99.90;;;;;;5111731;28;20042;-52
2022/06/29 04:34:05;;;;;;;7.22;3.10;;;16.40;99.90;;;;;;5111893;28;20421;-50
2022/06/29 04:36:32;;;;;;;4.78;2.80;;;16.50;99.90;;;;;;5093071;28;20046;-53
2022/06/29 04:38:58;;;;;;;7.00;3.10;;;16.50;99.90;;;;;;5110766;27;20039;-53
2022/06/29 04:41:24;;;;;;;5.07;2.75;;;16.50;99.90;;;;;;5111548;28;20066;-50
2022/06/29 04:43:50;;;;;;;5.72;2.90;;;16.50;99.90;;;;;;5111268;27;20119;-54
2022/06/29 04:46:19;;;;;;;6.50;3.45;;;16.50;99.90;;;;;;5111379;28;20390;-51
2022/06/29 04:48:56;;;;;;;6.68;3.10;;;16.50;99.90;;;;;;5111473;28;20398;-50
2022/06/29 04:51:22;;;;;;;6.40;3.20;;;16.60;99.90;;;;;;5111239;28;20042;-53
2022/06/29 04:53:49;;;;;;;6.65;2.80;;;16.60;99.90;;;;;;5110941;28;20040;-52
2022/06/29 04:56:16;;;;;;;5.25;3.00;;;16.70;99.90;;;;;;5111286;28;20155;-52
2022/06/29 04:58:42;;;;;;;6.15;3.05;;;16.70;99.90;;;;;;5110938;28;20106;-54
2022/06/29 05:01:08;;;;;;;10.00;3.78;;;16.70;99.90;;;;;;5111313;28;20042;-48
2022/06/29 05:03:34;;;;;;;6.28;3.08;;;16.70;99.90;;;;;;5110786;28;20039;-50
2022/06/29 05:06:00;;;;;;;5.82;3.20;;;16.80;99.90;;;;;;5111227;28;20047;-47
2022/06/29 05:08:26;;;;;;;8.35;3.25;;;16.80;99.90;;;;;;5110511;28;20474;-52
2022/06/29 05:10:51;;;;;;;7.50;3.28;;;16.80;99.90;;;;;;5110849;28;20027;-53
2022/06/29 05:13:17;;;;;;;5.28;2.70;;;16.80;99.90;;;;;;5110805;28;20032;-51
2022/06/29 05:15:43;;;;;;;5.70;3.28;;;16.90;99.90;;;;;;5110816;28;20044;-49
2022/06/29 05:18:08;;;;;;;5.82;3.33;;;16.90;99.90;;;;;;5110571;28;20429;-51
2022/06/29 05:20:34;;;;;;;4.85;3.20;;;16.90;99.90;;;;;;5110734;28;20089;-52
2022/06/29 05:23:00;;;;;;;6.57;2.97;;;17.00;99.90;;;;;;5110726;28;20039;-53
2022/06/29 05:25:26;;;;;;;5.65;2.90;;;17.10;99.90;;;;;;5110741;28;20104;-49
2022/06/29 05:27:52;;;;;;;6.30;3.30;;;17.10;99.90;;;;;;5110886;28;20458;-52
2022/06/29 05:30:17;;;;;;;6.68;2.90;;;17.20;99.90;;;;;;5110689;28;20047;-51
2022/06/29 05:32:43;;;;;;;5.32;3.08;;;17.30;99.90;;;;;;5092486;28;20032;-50
2022/06/29 05:35:10;;;;;;;6.28;3.42;;;17.30;99.90;;;;;;5110710;28;20375;-49
2022/06/29 05:37:36;;;;;;;7.25;3.53;;;17.30;99.90;;;;;;5110491;28;20044;-53
2022/06/29 05:40:03;;;;;;;5.60;3.45;;;17.40;99.90;;;;;;5110480;28;20036;-51
2022/06/29 05:42:28;;;;;;;6.25;3.28;;;17.50;99.90;;;;;;5110529;28;20459;-53
2022/06/29 05:44:54;;;;;;;9.55;3.50;;;17.50;99.90;;;;;;5110829;28;20096;-53
2022/06/29 05:47:20;;;;;;;5.53;3.33;;;17.60;99.90;;;;;;5110396;28;20043;-48
2022/06/29 05:49:46;;;;;;;8.57;3.38;;;17.70;99.90;;;;;;5110460;28;20038;-49
2022/06/29 05:52:11;;;;;;;6.90;3.28;;;17.70;99.90;;;;;;5110631;28;20093;-51
2022/06/29 05:54:37;;;;;;;6.47;3.28;;;17.80;99.90;;;;;;5110549;28;20044;-52
2022/06/29 05:57:04;;;;;;;5.85;2.92;;;17.90;99.90;;;;;;5110045;28;20048;-52
2022/06/29 05:59:30;;;;;;;6.65;2.88;;;18.00;99.90;;;;;;5110555;28;20115;-49
2022/06/29 06:01:55;;;;;;;12.02;3.60;;;18.00;99.90;;;;;;5109916;28;20193;-51
2022/06/29 06:04:21;;;;;;;4.65;2.90;;;18.10;99.90;;;;;;5110333;28;20028;-53
2022/06/29 06:06:47;;;;;;;5.32;2.97;;;18.20;99.90;;;;;;5110359;28;20047;-49
2022/06/29 06:09:13;;;;;;;8.27;3.40;;;18.30;99.90;;;;;;5110077;28;20040;-50
2022/06/29 06:11:38;;;;;;;7.72;2.97;;;18.40;99.90;;;;;;5108591;28;20382;-51
2022/06/29 06:14:04;;;;;;;8.90;2.92;;;18.40;99.90;;;;;;5110508;28;20080;-53
2022/06/29 06:16:30;;;;;;;6.47;3.08;;;18.50;99.90;;;;;;5110139;28;20035;-51
2022/06/29 06:18:55;;;;;;;5.68;3.08;;;18.50;99.90;;;;;;5109834;28;20032;-51
2022/06/29 06:21:21;;;;;;;5.75;3.10;;;18.60;99.90;;;;;;5110243;28;20046;-52
2022/06/29 06:23:47;;;;;;;6.45;2.75;;;18.60;99.90;;;;;;5110492;28;20071;-52
2022/06/29 06:26:13;;;;;;;5.45;2.83;;;18.70;99.90;;;;;;5110141;28;20043;-49
2022/06/29 06:28:40;;;;;;;7.03;3.13;;;18.70;99.90;;;;;;5110138;28;20052;-50
2022/06/29 06:31:07;;;;;;;4.65;2.95;;;18.80;99.90;;;;;;5110062;28;20047;-49
2022/06/29 06:33:33;;;;;;;4.15;2.70;;;18.90;99.90;;;;;;5111884;28;20168;-47
2022/06/29 06:35:59;;;;;;;6.55;2.72;;;18.80;99.90;;;;;;5113847;28;20390;-49
2022/06/29 06:38:25;;;;;;;7.20;2.80;;;18.90;99.90;;;;;;5113758;28;20034;-50
2022/06/29 06:43:35;;;;;;;4.65;2.65;;;19.10;99.90;;;;;;5113964;28;20123;-49
2022/06/29 06:46:01;;;;;;;6.22;3.00;;;19.20;99.90;;;;;;5113540;28;20444;-48
2022/06/29 06:48:26;;;;;;;4.05;2.70;;;19.30;99.90;;;;;;5095038;28;20040;-52
2022/06/29 06:50:52;;;;;;;5.07;2.88;;;19.30;99.90;;;;;;5113613;28;20471;-51
2022/06/29 06:53:18;;;;;;;6.57;2.50;;;19.40;99.90;;;;;;5110408;28;20471;-50
2022/06/29 06:55:43;;;;;;;6.63;3.72;;;19.50;99.90;;;;;;5112048;28;20052;-51
2022/06/29 06:58:09;;;;;;;5.85;2.88;;;19.50;99.90;;;;;;5112579;27;20035;-50
2022/06/29 07:00:35;;;;;;;5.53;2.47;;;19.60;99.90;;;;;;5113239;28;20028;-54
2022/06/29 07:03:01;;;;;;;8.50;3.00;;;19.60;99.90;;;;;;5113051;28;20063;-48
2022/06/29 07:05:26;;;;;;;5.95;2.47;;;19.70;99.90;;;;;;5093411;28;20699;-52
2022/06/29 07:07:52;;;;;;;7.30;2.90;;;19.80;99.90;;;;;;5103012;27;20040;-52
2022/06/29 07:10:18;;;;;;;5.10;2.38;;;19.80;99.90;;;;;;5104819;28;20039;-52
2022/06/29 07:12:43;;;;;;;6.18;3.08;;;19.90;99.90;;;;;;5105546;27;20039;-54
2022/06/29 07:15:09;;;;;;;5.90;2.58;;;20.00;99.90;;;;;;5105837;27;20389;-52
2022/06/29 07:17:35;;;;;;;8.00;2.50;;;20.10;99.90;;;;;;5104209;28;20479;-50
2022/06/29 07:20:00;;;;;;;3.85;2.65;;;20.20;99.90;;;;;;5105068;28;20043;-53
2022/06/29 07:22:26;;;;;;;4.07;2.17;;;20.20;99.90;;;;;;5104844;28;20027;-49
2022/06/29 07:24:52;;;;;;;4.20;2.20;;;20.30;99.90;;;;;;5104833;28;20031;-50
2022/06/29 07:27:17;;;;;;;5.78;2.13;;;20.40;99.90;;;;;;5105031;28;20047;-50
2022/06/29 07:29:43;;;;;;;6.28;2.30;;;20.50;99.90;;;;;;5105266;28;20035;-50
2022/06/29 07:32:09;;;;;;;5.93;2.13;;;20.50;99.90;;;;;;5105063;28;20526;-49
2022/06/29 07:34:35;;;;;;;4.45;1.98;;;20.60;99.90;;;;;;5105604;27;20028;-49
2022/06/29 07:37:01;;;;;;;3.72;1.98;;;20.60;99.90;;;;;;5104823;27;20376;-51
2022/06/29 07:39:30;;;;;;;4.78;2.20;;;20.80;99.90;;;;;;5104230;28;20035;-53
2022/06/29 07:41:56;;;;;;;3.47;1.80;;;20.80;99.90;;;;;;5105024;28;20070;-51
2022/06/29 07:44:22;;;;;;;4.80;2.10;;;20.90;99.90;;;;;;5103919;27;20051;-52
2022/06/29 07:46:48;;;;;;;4.78;2.10;;;21.00;99.90;;;;;;5104117;28;20036;-51
2022/06/29 07:49:13;;;;;;;4.30;1.90;;;21.00;99.90;;;;;;5104614;28;20429;-51
2022/06/29 07:51:39;;;;;;;4.25;2.05;;;21.10;99.90;;;;;;5105767;27;20096;-52
2022/06/29 07:54:05;;;;;;;3.40;1.80;;;21.20;99.90;;;;;;5102313;27;20036;-49
2022/06/29 07:56:32;;;;;;;4.68;1.85;;;21.30;99.90;;;;;;5103374;28;20066;-51
2022/06/29 07:59:00;;;;;;;4.40;1.85;;;21.30;99.90;;;;;;5103076;28;20047;-51
2022/06/29 08:01:26;;;;;;;5.07;2.28;;;21.40;99.90;;;;;;5102816;28;20398;-51
2022/06/29 08:03:53;;;;;;;5.85;1.90;;;21.60;99.90;;;;;;5100791;28;20047;-52
2022/06/29 08:06:19;;;;;;;5.65;2.03;;;21.60;99.90;;;;;;5101484;28;20044;-49
2022/06/29 08:08:45;;;;;;;4.43;2.00;;;21.70;99.90;;;;;;5101363;28;20035;-52
2022/06/29 08:11:11;;;;;;;5.50;2.10;;;21.80;99.90;;;;;;5101220;28;20494;-51
2022/06/29 08:13:40;;;;;;;4.32;2.08;;;21.90;99.90;;;;;;5101872;28;20377;-54
2022/06/29 08:16:06;;;;;;;5.43;2.15;;;22.00;99.90;;;;;;5100646;27;20039;-49
2022/06/29 08:18:33;;;;;;;8.77;1.85;;;22.00;99.90;;;;;;5101171;28;20059;-52
2022/06/29 08:21:00;;;;;;;5.30;1.90;;;22.10;99.90;;;;;;5101651;28;20036;-52
2022/06/29 08:23:25;;;;;;;6.80;2.03;;;22.20;99.90;;;;;;5100918;28;21026;-50
2022/06/29 08:25:51;;;;;;;5.40;2.10;;;22.30;99.90;;;;;;5100888;28;20039;-53
2022/06/29 08:28:17;;;;;;;6.53;2.20;;;22.30;99.90;;;;;;5101109;28;20043;-55
2022/06/29 08:30:42;;;;;;;5.40;1.67;;;22.30;99.90;;;;;;5100841;28;20067;-53
2022/06/29 08:33:08;;;;;;;4.00;1.83;;;22.40;99.90;;;;;;5101633;28;20051;-51
2022/06/29 08:35:34;;;;;;;6.78;1.60;;;22.50;99.90;;;;;;5100753;28;20035;-51
2022/06/29 08:38:00;;;;;;;3.83;1.70;;;22.70;99.90;;;;;;5101092;28;20081;-53
2022/06/29 08:40:31;;;;;;;5.40;1.85;;;22.70;99.90;;;;;;5100219;28;20043;-53
2022/06/29 08:42:57;;;;;;;4.75;2.10;;;22.80;99.90;;;;;;5100597;28;20130;-52
2022/06/29 08:45:23;;;;;;;3.83;1.60;;;22.90;99.90;;;;;;5101371;28;20515;-55
2022/06/29 08:47:48;;;;;;;2.88;1.75;;;23.00;99.90;;;;;;5100643;28;20352;-53
2022/06/29 08:50:14;;;;;;;4.82;1.50;;;23.00;99.90;;;;;;5099936;28;20093;-54
2022/06/29 08:52:41;;;;;;;4.78;1.30;;;23.10;99.90;;;;;;5095142;27;20469;-54
2022/06/29 08:55:09;;;;;;;5.43;1.45;;;23.30;99.90;;;;;;5096398;27;20031;-50
2022/06/29 08:57:43;;;;;;;7.70;1.77;;;23.30;99.90;;;;;;5095279;28;20047;-54
2022/06/29 09:00:09;;;;;;;;;;;23.50;99.90;;;;;;5101341;28;20035;-51
2022/06/29 09:02:36;;;;;;;4.90;1.63;;;23.50;99.90;;;;;;5079398;28;19934;-53
2022/06/29 09:05:03;;;;;;;5.07;1.60;;;23.70;99.90;;;;;;5101801;28;20110;-50
2022/06/29 09:07:28;;;;;;;4.93;1.15;;;24.00;99.90;;;;;;5101760;28;20035;-49
2022/06/29 09:10:09;;;;;;;2.45;1.02;;;24.00;99.90;;;;;;5101890;28;20912;-50
2022/06/29 09:12:35;;;;;;;4.70;1.52;;;24.20;98.50;;;;;;5095958;27;20488;-51
2022/06/29 09:15:04;;;;;;;3.13;1.35;;;24.30;99.10;;;;;;5102813;28;20078;-52
2022/06/29 09:17:34;;;;;;;4.65;1.40;;;24.50;98.40;;;;;;5106154;27;20040;-50
2022/06/29 09:20:00;;;;;;;4.15;1.23;;;24.60;98.70;;;;;;5108842;28;20364;-52
2022/06/29 09:22:26;;;;;;;2.88;1.30;;;24.80;97.80;;;;;;5110048;28;20031;-53
2022/06/29 09:24:51;;;;;;;3.30;1.15;;;24.80;98.10;;;;;;5110348;28;20040;-51
2022/06/29 09:27:18;;;;;;;4.70;1.52;;;25.00;97.30;;;;;;5110858;28;20039;-54
2022/06/29 09:29:45;;;;;;;4.55;0.95;;;25.20;97.40;;;;;;5110869;28;20047;-52
2022/06/29 09:32:13;;;;;;;2.88;1.20;;;25.20;97.10;;;;;;5110401;28;20110;-53
2022/06/29 09:34:50;;;;;;;4.47;1.15;;;25.40;96.20;;;;;;5110655;28;20384;-53
2022/06/29 09:37:18;;;;;;;5.60;1.67;;;25.60;96.50;;;;;;5110385;28;20075;-51
2022/06/29 09:39:55;;;;;;;4.55;1.40;;;25.40;96.30;;;;;;5110188;28;20114;-51
2022/06/29 09:42:28;;;;;;;4.32;1.40;;;25.40;95.90;;;;;;5110934;28;20390;-54
2022/06/29 09:44:54;;;;;;;4.72;1.42;;;25.40;96.00;;;;;;5110886;28;20126;-49
2022/06/29 09:47:22;;;;;;;5.00;1.40;;;25.40;97.00;;;;;;5110123;28;20154;-48
2022/06/29 09:50:01;;;;;;;4.90;1.50;;;25.50;97.40;;;;;;5091772;28;20053;-55
2022/06/29 09:52:27;;;;;;;2.45;1.20;;;26.10;96.50;;;;;;5110660;28;20510;-50
2022/06/29 09:54:58;;;;;;;4.05;1.20;;;26.30;97.20;;;;;;5110404;28;20027;-52
2022/06/29 09:57:27;;;;;;;4.05;1.58;;;26.50;95.30;;;;;;5091589;28;20079;-52
2022/06/29 10:02:48;;;;;;;4.75;1.17;;;26.50;94.90;;;;;;5094899;28;20044;-52
2022/06/29 10:05:15;;;;;;;3.60;1.20;;;26.00;94.00;;;;;;5110487;28;20047;-51
2022/06/29 10:07:48;;;;;;;4.43;1.05;;;25.90;94.50;;;;;;5129841;27;20478;-52
2022/06/29 10:10:16;;;;;;;3.17;1.17;;;26.00;95.10;;;;;;5134685;27;20047;-53
2022/06/29 10:15:57;;;;;;;4.40;1.25;;;26.50;93.50;;;;;;5113299;28;20052;-52
2022/06/29 10:18:35;;;;;;;3.38;1.20;;;26.60;92.70;;;;;;5114669;28;20039;-50
2022/06/29 10:21:02;;;;;;;5.50;1.10;;;26.70;93.50;;;;;;5114059;27;20035;-53
2022/06/29 10:23:49;;;;;;;4.03;1.15;;;26.60;92.60;;;;;;5109719;27;20134;-48
2022/06/29 10:29:10;;;;;;;4.07;1.10;;;27.10;93.00;;;;;;5112433;28;20048;-54
2022/06/29 10:31:54;;;;;;;3.33;1.20;;;26.90;91.60;;;;;;5109345;28;20039;-53
2022/06/29 10:34:31;;;;;;;4.85;1.40;;;26.90;92.70;;;;;;5109143;28;20043;-50
2022/06/29 10:37:03;;;;;;;4.75;1.40;;;26.70;92.10;;;;;;5105426;28;20044;-53
2022/06/29 10:39:49;;;;;;;2.75;1.20;;;26.80;91.10;;;;;;5083894;28;20043;-51
2022/06/29 10:45:32;;;;;;;3.97;1.10;;;26.50;93.00;;;;;;5106227;28;20486;-50
2022/06/29 10:47:58;;;;;;;5.35;1.30;;;26.30;93.10;;;;;;5106389;28;20048;-48
2022/06/29 10:50:26;;;;;;;4.95;1.35;;;26.20;90.40;;;;;;5084671;28;20058;-51
2022/06/29 10:52:54;;;;;;;3.35;1.05;;;26.30;91.90;;;;;;5090717;28;20113;-53
2022/06/29 10:55:20;;;;;;;5.05;1.20;;;26.50;91.70;;;;;;5112103;28;20040;-52
2022/06/29 10:57:46;;;;;;;3.03;1.10;;;26.80;91.20;;;;;;5110849;28;20548;-52
2022/06/29 11:00:19;;;;;;;4.40;1.27;;;26.90;91.00;;;;;;5110599;28;20110;-51
2022/06/29 11:02:45;;;;;;;2.25;1.10;;;27.00;87.50;;;;;;5111115;28;21081;-52
2022/06/29 11:05:11;;;;;;;2.90;1.27;;;27.40;88.60;;;;;;5110411;28;20154;-48
2022/06/29 11:13:23;;;;;;;3.67;1.52;;;27.80;88.60;;;;;;5111310;28;20062;-52
2022/06/29 11:15:50;;;;;;;3.28;1.13;;;27.60;88.50;;;;;;5108638;28;20046;-52
2022/06/29 11:18:21;;;;;;;6.45;1.40;;;27.50;89.40;;;;;;5110038;28;20040;-49
2022/06/29 11:20:49;;;;;;;3.55;1.30;;;27.50;89.90;;;;;;5108873;28;20035;-55
2022/06/29 11:23:17;;;;;;;3.05;1.10;;;27.60;90.60;;;;;;5109884;28;20040;-52
2022/06/29 11:25:47;;;;;;;4.35;1.38;;;27.80;90.10;;;;;;5110045;28;20036;-52
2022/06/29 11:28:35;;;;;;;3.03;1.65;;;27.60;89.80;;;;;;5109833;28;20110;-49
2022/06/29 11:31:09;;;;;;;2.97;1.40;;;27.60;89.70;;;;;;5110383;28;20043;-53
2022/06/29 11:33:56;;;;;;;4.97;1.38;;;27.40;89.60;;;;;;5109867;28;20084;-48
2022/06/29 11:36:34;;;;;;;3.50;1.60;;;27.30;90.00;;;;;;5109357;28;20036;-51
2022/06/29 11:39:06;;;;;;;3.88;1.40;;;27.10;90.70;;;;;;5106973;27;20093;-51
2022/06/29 11:44:31;;;;;;;3.63;1.60;;;27.70;90.90;;;;;;5109754;27;20048;-48
2022/06/29 11:46:57;;;;;;;5.75;2.00;;;28.10;90.50;;;;;;5109431;27;20039;-50
2022/06/29 11:49:39;;;;;;;6.13;1.63;;;28.10;87.60;;;;;;5109617;28;20502;-48
2022/06/29 11:52:12;;;;;;;3.47;1.60;;;28.30;89.00;;;;;;5108872;27;20564;-48
2022/06/29 11:54:41;;;;;;;4.43;1.88;;;28.40;89.70;;;;;;5110078;28;20040;-47
2022/06/29 11:57:11;;;;;;;4.32;1.75;;;28.10;86.20;;;;;;5106815;28;20135;-48
2022/06/29 11:59:39;;;;;;;3.22;1.75;;;28.40;88.30;;;;;;5105714;27;20115;-50
2022/06/29 12:02:05;;;;;;;3.33;1.75;;;28.50;89.30;;;;;;5108020;28;20056;-48
2022/06/29 12:04:34;;;;;;;4.97;1.60;;;28.50;88.30;;;;;;5109154;28;20039;-47
2022/06/29 12:07:17;;;;;;;3.55;1.75;;;28.50;89.70;;;;;;5090943;28;20039;-48
2022/06/29 12:09:48;;;;;;;4.38;1.88;;;28.50;87.50;;;;;;5106702;28;20100;-48
2022/06/29 12:12:14;;;;;;;4.38;2.00;;;28.50;90.20;;;;;;5090895;28;20097;-45
2022/06/29 12:14:41;;;;;;;4.38;1.65;;;28.90;87.40;;;;;;5109282;28;20035;-50
2022/06/29 12:17:09;;;;;;;4.90;1.92;;;29.20;87.40;;;;;;5109074;28;20046;-50
2022/06/29 12:19:35;;;;;;;5.30;1.70;;;29.30;88.30;;;;;;5109820;28;20092;-51
2022/06/29 12:22:01;;;;;;;3.55;2.05;;;29.30;89.20;;;;;;5090857;28;20047;-49
2022/06/29 12:24:28;;;;;;;6.88;2.13;;;29.50;88.50;;;;;;5108382;28;20474;-53
2022/06/29 12:26:54;;;;;;;4.78;1.90;;;29.40;87.50;;;;;;5091425;28;20047;-52
2022/06/29 12:29:20;;;;;;;3.30;1.88;;;29.30;88.40;;;;;;5107436;28;20473;-50
2022/06/29 12:31:46;;;;;;;4.13;2.15;;;29.50;89.50;;;;;;5108124;28;20031;-47
2022/06/29 12:34:14;;;;;;;5.55;2.40;;;29.60;88.40;;;;;;5108084;28;20035;-49
2022/06/29 12:36:41;;;;;;;5.13;1.95;;;29.60;87.30;;;;;;5109233;28;20474;-48
2022/06/29 12:39:07;;;;;;;4.82;1.90;;;29.90;88.20;;;;;;5089219;28;20039;-49
2022/06/29 12:41:34;;;;;;;3.92;2.03;;;29.90;85.80;;;;;;5091173;28;20071;-49
2022/06/29 12:44:01;;;;;;;4.85;1.63;;;30.00;86.00;;;;;;5108988;28;20449;-50
2022/06/29 12:46:30;;;;;;;3.13;1.60;;;30.30;84.30;;;;;;5109978;28;20048;-47
2022/06/29 12:48:57;;;;;;;5.20;1.83;;;30.40;84.90;;;;;;5107009;28;20043;-47
2022/06/29 12:51:23;;;;;;;6.80;2.13;;;30.60;85.70;;;;;;5107104;28;20081;-49
2022/06/29 12:53:49;;;;;;;4.63;1.75;;;30.70;83.50;;;;;;5109714;27;20059;-48
2022/06/29 12:56:15;;;;;;;5.22;1.80;;;30.70;83.80;;;;;;5091548;28;20078;-47
2022/06/29 12:58:41;;;;;;;4.43;2.00;;;30.60;84.10;;;;;;5107319;28;20458;-50
2022/06/29 13:01:07;;;;;;;3.63;1.92;;;30.60;81.60;;;;;;5109533;28;20383;-48
2022/06/29 13:03:33;;;;;;;4.10;1.73;;;30.20;82.00;;;;;;5107349;28;20090;-46
2022/06/29 13:05:59;;;;;;;2.90;1.60;;;30.40;83.60;;;;;;5108496;28;20474;-50
2022/06/29 13:08:24;;;;;;;4.22;1.73;;;30.60;83.00;;;;;;5107303;28;20032;-44
2022/06/29 13:10:50;;;;;;;4.80;1.65;;;31.00;82.90;;;;;;5108376;28;20434;-49
2022/06/29 13:13:16;;;;;;;3.50;1.63;;;31.10;82.60;;;;;;5108748;28;20441;-48